sensor_id;sensor_type;location;lat;lon;timestamp;P1;durP1;ratioP1;P2;durP2;ratioP2
41861;SDS011;27537;57.134;-2.136;2024-01-06T00:00:09;9.77;;;4.72;;
41861;SDS011;27537;57.134;-2.136;2024-01-06T00:02:36;8.20;;;3.63;;
41861;SDS011;27537;57.134;-2.136;2024-01-06T00:05:03;8.93;;;3.40;;
41861;SDS011;27537;57.134;-2.136;2024-01-06T00:07:30;10.25;;;4.38;;
41861;SDS011;27537;57.134;-2.136;2024-01-06T00:09:57;8.98;;;3.92;;
41861;SDS011;27537;57.134;-2.136;2024-01-06T00:12:23;10.18;;;4.13;;
41861;SDS011;27537;57.134;-2.136;2024-01-06T00:14:50;9.25;;;3.75;;
41861;SDS011;27537;57.134;-2.136;2024-01-06T00:17:16;10.20;;;4.57;;
41861;SDS011;27537;57.134;-2.136;2024-01-06T00:19:43;9.23;;;4.03;;
41861;SDS011;27537;57.134;-2.136;2024-01-06T00:22:10;9.02;;;3.60;;
41861;SDS011;27537;57.134;-2.136;2024-01-06T00:24:37;9.68;;;3.60;;
41861;SDS011;27537;57.134;-2.136;2024-01-06T00:27:03;9.60;;;3.92;;
41861;SDS011;27537;57.134;-2.136;2024-01-06T00:29:30;8.43;;;3.47;;
41861;SDS011;27537;57.134;-2.136;2024-01-06T00:31:57;7.57;;;3.00;;
41861;SDS011;27537;57.134;-2.136;2024-01-06T00:34:24;8.55;;;3.50;;
41861;SDS011;27537;57.134;-2.136;2024-01-06T00:36:50;9.00;;;3.17;;
41861;SDS011;27537;57.134;-2.136;2024-01-06T00:39:17;8.32;;;3.15;;
41861;SDS011;27537;57.134;-2.136;2024-01-06T00:41:44;10.25;;;3.53;;
41861;SDS011;27537;57.134;-2.136;2024-01-06T00:44:11;7.63;;;3.15;;
41861;SDS011;27537;57.134;-2.136;2024-01-06T00:46:39;6.03;;;2.55;;
41861;SDS011;27537;57.134;-2.136;2024-01-06T00:49:05;7.75;;;3.25;;
41861;SDS011;27537;57.134;-2.136;2024-01-06T00:51:32;8.15;;;3.42;;
41861;SDS011;27537;57.134;-2.136;2024-01-06T00:54:02;9.50;;;4.50;;
41861;SDS011;27537;57.134;-2.136;2024-01-06T00:56:29;7.93;;;3.45;;
41861;SDS011;27537;57.134;-2.136;2024-01-06T00:58:55;8.23;;;3.03;;
41861;SDS011;27537;57.134;-2.136;2024-01-06T01:01:22;9.93;;;3.53;;
41861;SDS011;27537;57.134;-2.136;2024-01-06T01:03:49;7.80;;;3.20;;
41861;SDS011;27537;57.134;-2.136;2024-01-06T01:06:16;7.20;;;2.83;;
41861;SDS011;27537;57.134;-2.136;2024-01-06T01:08:42;5.63;;;2.20;;
41861;SDS011;27537;57.134;-2.136;2024-01-06T01:11:09;7.25;;;2.35;;
41861;SDS011;27537;57.134;-2.136;2024-01-06T01:13:36;6.70;;;2.10;;
41861;SDS011;27537;57.134;-2.136;2024-01-06T01:16:02;6.00;;;2.05;;
41861;SDS011;27537;57.134;-2.136;2024-01-06T01:18:29;7.47;;;2.03;;
41861;SDS011;27537;57.134;-2.136;2024-01-06T01:20:56;4.00;;;1.67;;
41861;SDS011;27537;57.134;-2.136;2024-01-06T01:23:23;5.57;;;1.70;;
41861;SDS011;27537;57.134;-2.136;2024-01-06T01:25:49;3.95;;;1.50;;
41861;SDS011;27537;57.134;-2.136;2024-01-06T01:28:16;4.97;;;2.00;;
41861;SDS011;27537;57.134;-2.136;2024-01-06T01:30:43;4.07;;;1.83;;
41861;SDS011;27537;57.134;-2.136;2024-01-06T01:33:10;3.67;;;1.40;;
41861;SDS011;27537;57.134;-2.136;2024-01-06T01:35:36;5.50;;;1.95;;
41861;SDS011;27537;57.134;-2.136;2024-01-06T01:38:03;4.45;;;1.60;;
41861;SDS011;27537;57.134;-2.136;2024-01-06T01:40:30;3.95;;;1.58;;
41861;SDS011;27537;57.134;-2.136;2024-01-06T01:42:56;5.18;;;1.50;;
41861;SDS011;27537;57.134;-2.136;2024-01-06T01:45:23;4.38;;;1.50;;
41861;SDS011;27537;57.134;-2.136;2024-01-06T01:47:50;3.17;;;1.40;;
41861;SDS011;27537;57.134;-2.136;2024-01-06T01:50:17;3.75;;;1.42;;
41861;SDS011;27537;57.134;-2.136;2024-01-06T01:52:46;3.55;;;1.42;;
41861;SDS011;27537;57.134;-2.136;2024-01-06T01:55:13;4.28;;;1.38;;
41861;SDS011;27537;57.134;-2.136;2024-01-06T01:57:40;4.00;;;1.35;;
41861;SDS011;27537;57.134;-2.136;2024-01-06T02:00:07;3.25;;;1.45;;
41861;SDS011;27537;57.134;-2.136;2024-01-06T02:02:35;5.25;;;1.63;;
41861;SDS011;27537;57.134;-2.136;2024-01-06T02:05:01;6.70;;;1.90;;
41861;SDS011;27537;57.134;-2.136;2024-01-06T02:07:28;6.40;;;1.90;;
41861;SDS011;27537;57.134;-2.136;2024-01-06T02:09:55;5.90;;;2.38;;
41861;SDS011;27537;57.134;-2.136;2024-01-06T02:12:21;7.22;;;2.45;;
41861;SDS011;27537;57.134;-2.136;2024-01-06T02:14:48;6.53;;;2.72;;
41861;SDS011;27537;57.134;-2.136;2024-01-06T02:17:15;8.68;;;3.08;;
41861;SDS011;27537;57.134;-2.136;2024-01-06T02:19:41;7.70;;;3.03;;
41861;SDS011;27537;57.134;-2.136;2024-01-06T02:22:08;11.48;;;2.90;;
41861;SDS011;27537;57.134;-2.136;2024-01-06T02:24:35;8.32;;;2.90;;
41861;SDS011;27537;57.134;-2.136;2024-01-06T02:27:02;6.15;;;2.38;;
41861;SDS011;27537;57.134;-2.136;2024-01-06T02:29:28;8.60;;;2.45;;
41861;SDS011;27537;57.134;-2.136;2024-01-06T02:31:55;11.02;;;3.03;;
41861;SDS011;27537;57.134;-2.136;2024-01-06T02:34:22;7.68;;;2.60;;
41861;SDS011;27537;57.134;-2.136;2024-01-06T02:36:48;8.35;;;2.55;;
41861;SDS011;27537;57.134;-2.136;2024-01-06T02:39:15;6.45;;;2.90;;
41861;SDS011;27537;57.134;-2.136;2024-01-06T02:41:42;6.22;;;2.33;;
41861;SDS011;27537;57.134;-2.136;2024-01-06T02:44:08;7.82;;;2.75;;
41861;SDS011;27537;57.134;-2.136;2024-01-06T02:46:39;6.07;;;2.60;;
41861;SDS011;27537;57.134;-2.136;2024-01-06T02:49:06;7.88;;;2.63;;
41861;SDS011;27537;57.134;-2.136;2024-01-06T02:51:34;9.00;;;2.80;;
41861;SDS011;27537;57.134;-2.136;2024-01-06T02:54:00;7.30;;;2.85;;
41861;SDS011;27537;57.134;-2.136;2024-01-06T02:56:27;9.02;;;3.15;;
41861;SDS011;27537;57.134;-2.136;2024-01-06T02:58:54;7.53;;;2.60;;
41861;SDS011;27537;57.134;-2.136;2024-01-06T03:01:20;6.50;;;2.28;;
41861;SDS011;27537;57.134;-2.136;2024-01-06T03:03:47;7.18;;;2.72;;
41861;SDS011;27537;57.134;-2.136;2024-01-06T03:06:14;6.25;;;2.05;;
41861;SDS011;27537;57.134;-2.136;2024-01-06T03:08:41;6.10;;;2.53;;
41861;SDS011;27537;57.134;-2.136;2024-01-06T03:11:07;5.70;;;2.08;;
41861;SDS011;27537;57.134;-2.136;2024-01-06T03:13:34;4.38;;;1.80;;
41861;SDS011;27537;57.134;-2.136;2024-01-06T03:16:03;5.75;;;2.28;;
41861;SDS011;27537;57.134;-2.136;2024-01-06T03:18:31;5.25;;;2.10;;
41861;SDS011;27537;57.134;-2.136;2024-01-06T03:20:58;5.88;;;2.05;;
41861;SDS011;27537;57.134;-2.136;2024-01-06T03:23:25;5.65;;;2.33;;
41861;SDS011;27537;57.134;-2.136;2024-01-06T03:25:51;4.97;;;1.92;;
41861;SDS011;27537;57.134;-2.136;2024-01-06T03:28:18;4.93;;;1.98;;
41861;SDS011;27537;57.134;-2.136;2024-01-06T03:30:45;5.90;;;1.80;;
41861;SDS011;27537;57.134;-2.136;2024-01-06T03:33:12;5.47;;;1.70;;
41861;SDS011;27537;57.134;-2.136;2024-01-06T03:35:39;4.63;;;1.73;;
41861;SDS011;27537;57.134;-2.136;2024-01-06T03:38:05;3.83;;;1.65;;
41861;SDS011;27537;57.134;-2.136;2024-01-06T03:40:32;4.22;;;1.52;;
41861;SDS011;27537;57.134;-2.136;2024-01-06T03:42:59;3.30;;;1.50;;
41861;SDS011;27537;57.134;-2.136;2024-01-06T03:45:26;4.68;;;1.80;;
41861;SDS011;27537;57.134;-2.136;2024-01-06T03:47:53;3.85;;;1.52;;
41861;SDS011;27537;57.134;-2.136;2024-01-06T03:50:20;4.25;;;1.60;;
41861;SDS011;27537;57.134;-2.136;2024-01-06T03:52:47;4.18;;;1.55;;
41861;SDS011;27537;57.134;-2.136;2024-01-06T03:55:15;3.95;;;1.40;;
41861;SDS011;27537;57.134;-2.136;2024-01-06T03:57:42;4.10;;;1.50;;
41861;SDS011;27537;57.134;-2.136;2024-01-06T04:00:09;4.88;;;1.58;;
41861;SDS011;27537;57.134;-2.136;2024-01-06T04:02:36;3.20;;;1.40;;
41861;SDS011;27537;57.134;-2.136;2024-01-06T04:05:03;7.05;;;1.50;;
41861;SDS011;27537;57.134;-2.136;2024-01-06T04:07:31;2.60;;;1.33;;
41861;SDS011;27537;57.134;-2.136;2024-01-06T04:09:58;4.05;;;1.35;;
41861;SDS011;27537;57.134;-2.136;2024-01-06T04:12:25;4.18;;;1.50;;
41861;SDS011;27537;57.134;-2.136;2024-01-06T04:14:51;3.80;;;1.40;;
41861;SDS011;27537;57.134;-2.136;2024-01-06T04:17:19;3.75;;;1.42;;
41861;SDS011;27537;57.134;-2.136;2024-01-06T04:19:46;3.70;;;1.40;;
41861;SDS011;27537;57.134;-2.136;2024-01-06T04:22:12;5.68;;;1.77;;
41861;SDS011;27537;57.134;-2.136;2024-01-06T04:24:39;2.35;;;1.27;;
41861;SDS011;27537;57.134;-2.136;2024-01-06T04:27:07;3.13;;;1.23;;
41861;SDS011;27537;57.134;-2.136;2024-01-06T04:29:34;4.07;;;1.20;;
41861;SDS011;27537;57.134;-2.136;2024-01-06T04:32:00;3.50;;;1.27;;
41861;SDS011;27537;57.134;-2.136;2024-01-06T04:34:27;3.47;;;1.40;;
41861;SDS011;27537;57.134;-2.136;2024-01-06T04:36:53;3.65;;;1.40;;
41861;SDS011;27537;57.134;-2.136;2024-01-06T04:39:20;5.65;;;1.20;;
41861;SDS011;27537;57.134;-2.136;2024-01-06T04:41:47;4.90;;;1.38;;
41861;SDS011;27537;57.134;-2.136;2024-01-06T04:44:14;3.58;;;1.40;;
41861;SDS011;27537;57.134;-2.136;2024-01-06T04:46:40;3.65;;;1.63;;
41861;SDS011;27537;57.134;-2.136;2024-01-06T04:49:07;2.25;;;1.20;;
41861;SDS011;27537;57.134;-2.136;2024-01-06T04:51:34;2.85;;;1.30;;
41861;SDS011;27537;57.134;-2.136;2024-01-06T04:54:01;4.15;;;1.42;;
41861;SDS011;27537;57.134;-2.136;2024-01-06T04:56:27;4.95;;;1.50;;
41861;SDS011;27537;57.134;-2.136;2024-01-06T04:58:54;7.68;;;1.48;;
41861;SDS011;27537;57.134;-2.136;2024-01-06T05:01:21;2.20;;;1.20;;
41861;SDS011;27537;57.134;-2.136;2024-01-06T05:03:48;3.92;;;1.20;;
41861;SDS011;27537;57.134;-2.136;2024-01-06T05:06:15;3.50;;;1.25;;
41861;SDS011;27537;57.134;-2.136;2024-01-06T05:08:41;3.75;;;1.25;;
41861;SDS011;27537;57.134;-2.136;2024-01-06T05:11:11;4.05;;;1.27;;
41861;SDS011;27537;57.134;-2.136;2024-01-06T05:13:38;3.70;;;1.42;;
41861;SDS011;27537;57.134;-2.136;2024-01-06T05:16:05;3.20;;;1.35;;
41861;SDS011;27537;57.134;-2.136;2024-01-06T05:18:32;4.60;;;1.75;;
41861;SDS011;27537;57.134;-2.136;2024-01-06T05:20:59;3.22;;;1.30;;
41861;SDS011;27537;57.134;-2.136;2024-01-06T05:23:26;1.42;;;1.00;;
41861;SDS011;27537;57.134;-2.136;2024-01-06T05:25:52;4.82;;;1.20;;
41861;SDS011;27537;57.134;-2.136;2024-01-06T05:28:19;3.25;;;1.23;;
41861;SDS011;27537;57.134;-2.136;2024-01-06T05:30:46;4.55;;;1.60;;
41861;SDS011;27537;57.134;-2.136;2024-01-06T05:33:13;8.68;;;1.60;;
41861;SDS011;27537;57.134;-2.136;2024-01-06T05:35:41;3.80;;;1.52;;
41861;SDS011;27537;57.134;-2.136;2024-01-06T05:38:08;3.65;;;1.45;;
41861;SDS011;27537;57.134;-2.136;2024-01-06T05:40:35;3.88;;;1.30;;
41861;SDS011;27537;57.134;-2.136;2024-01-06T05:43:01;3.13;;;1.30;;
41861;SDS011;27537;57.134;-2.136;2024-01-06T05:45:28;4.53;;;1.60;;
41861;SDS011;27537;57.134;-2.136;2024-01-06T05:47:56;4.10;;;1.67;;
41861;SDS011;27537;57.134;-2.136;2024-01-06T05:50:23;5.50;;;2.50;;
41861;SDS011;27537;57.134;-2.136;2024-01-06T05:52:50;3.67;;;1.40;;
41861;SDS011;27537;57.134;-2.136;2024-01-06T05:55:18;4.15;;;1.42;;
41861;SDS011;27537;57.134;-2.136;2024-01-06T05:57:45;5.93;;;1.50;;
41861;SDS011;27537;57.134;-2.136;2024-01-06T06:00:12;3.00;;;1.30;;
41861;SDS011;27537;57.134;-2.136;2024-01-06T06:02:40;6.65;;;1.52;;
41861;SDS011;27537;57.134;-2.136;2024-01-06T06:05:07;6.90;;;1.55;;
41861;SDS011;27537;57.134;-2.136;2024-01-06T06:07:34;3.97;;;1.42;;
41861;SDS011;27537;57.134;-2.136;2024-01-06T06:10:06;4.50;;;1.35;;
41861;SDS011;27537;57.134;-2.136;2024-01-06T06:12:34;3.33;;;1.42;;
41861;SDS011;27537;57.134;-2.136;2024-01-06T06:15:02;5.32;;;1.50;;
41861;SDS011;27537;57.134;-2.136;2024-01-06T06:17:33;1.55;;;1.20;;
41861;SDS011;27537;57.134;-2.136;2024-01-06T06:20:00;3.72;;;1.52;;
41861;SDS011;27537;57.134;-2.136;2024-01-06T06:22:26;5.97;;;1.90;;
41861;SDS011;27537;57.134;-2.136;2024-01-06T06:24:57;3.95;;;1.75;;
41861;SDS011;27537;57.134;-2.136;2024-01-06T06:27:24;3.90;;;1.50;;
41861;SDS011;27537;57.134;-2.136;2024-01-06T06:29:51;5.03;;;1.60;;
41861;SDS011;27537;57.134;-2.136;2024-01-06T06:32:18;4.78;;;1.50;;
41861;SDS011;27537;57.134;-2.136;2024-01-06T06:34:44;4.18;;;1.70;;
41861;SDS011;27537;57.134;-2.136;2024-01-06T06:37:11;4.65;;;1.90;;
41861;SDS011;27537;57.134;-2.136;2024-01-06T06:39:38;5.53;;;1.98;;
41861;SDS011;27537;57.134;-2.136;2024-01-06T06:42:05;5.65;;;1.73;;
41861;SDS011;27537;57.134;-2.136;2024-01-06T06:44:31;6.40;;;1.85;;
41861;SDS011;27537;57.134;-2.136;2024-01-06T06:46:58;4.82;;;2.10;;
41861;SDS011;27537;57.134;-2.136;2024-01-06T06:49:24;4.25;;;1.67;;
41861;SDS011;27537;57.134;-2.136;2024-01-06T06:51:52;5.07;;;1.70;;
41861;SDS011;27537;57.134;-2.136;2024-01-06T06:54:19;4.78;;;1.73;;
41861;SDS011;27537;57.134;-2.136;2024-01-06T06:56:45;3.70;;;1.50;;
41861;SDS011;27537;57.134;-2.136;2024-01-06T06:59:12;4.35;;;1.65;;
41861;SDS011;27537;57.134;-2.136;2024-01-06T07:01:39;3.38;;;1.55;;
41861;SDS011;27537;57.134;-2.136;2024-01-06T07:04:06;4.90;;;1.85;;
41861;SDS011;27537;57.134;-2.136;2024-01-06T07:06:33;6.03;;;1.70;;
41861;SDS011;27537;57.134;-2.136;2024-01-06T07:09:00;5.90;;;1.80;;
41861;SDS011;27537;57.134;-2.136;2024-01-06T07:11:26;3.65;;;1.50;;
41861;SDS011;27537;57.134;-2.136;2024-01-06T07:13:53;4.90;;;1.98;;
41861;SDS011;27537;57.134;-2.136;2024-01-06T07:16:20;4.18;;;1.70;;
41861;SDS011;27537;57.134;-2.136;2024-01-06T07:18:47;4.50;;;1.83;;
41861;SDS011;27537;57.134;-2.136;2024-01-06T07:21:14;3.75;;;1.67;;
41861;SDS011;27537;57.134;-2.136;2024-01-06T07:23:41;4.18;;;1.67;;
41861;SDS011;27537;57.134;-2.136;2024-01-06T07:26:09;2.78;;;1.50;;
41861;SDS011;27537;57.134;-2.136;2024-01-06T07:28:35;7.82;;;1.65;;
41861;SDS011;27537;57.134;-2.136;2024-01-06T07:31:02;4.28;;;1.45;;
41861;SDS011;27537;57.134;-2.136;2024-01-06T07:33:29;4.18;;;1.58;;
41861;SDS011;27537;57.134;-2.136;2024-01-06T07:35:56;3.78;;;1.40;;
41861;SDS011;27537;57.134;-2.136;2024-01-06T07:38:22;3.33;;;1.48;;
41861;SDS011;27537;57.134;-2.136;2024-01-06T07:40:49;3.45;;;1.20;;
41861;SDS011;27537;57.134;-2.136;2024-01-06T07:43:15;6.85;;;1.65;;
41861;SDS011;27537;57.134;-2.136;2024-01-06T07:45:42;4.18;;;1.90;;
41861;SDS011;27537;57.134;-2.136;2024-01-06T07:48:09;3.90;;;1.50;;
41861;SDS011;27537;57.134;-2.136;2024-01-06T07:50:35;4.03;;;1.40;;
41861;SDS011;27537;57.134;-2.136;2024-01-06T07:53:02;4.53;;;1.60;;
41861;SDS011;27537;57.134;-2.136;2024-01-06T07:55:29;4.60;;;1.55;;
41861;SDS011;27537;57.134;-2.136;2024-01-06T07:57:55;3.08;;;1.30;;
41861;SDS011;27537;57.134;-2.136;2024-01-06T08:00:22;4.75;;;1.40;;
41861;SDS011;27537;57.134;-2.136;2024-01-06T08:02:49;3.83;;;1.40;;
41861;SDS011;27537;57.134;-2.136;2024-01-06T08:05:16;3.85;;;1.50;;
41861;SDS011;27537;57.134;-2.136;2024-01-06T08:07:43;5.13;;;1.63;;
41861;SDS011;27537;57.134;-2.136;2024-01-06T08:10:09;4.72;;;1.60;;
41861;SDS011;27537;57.134;-2.136;2024-01-06T08:12:36;4.60;;;1.70;;
41861;SDS011;27537;57.134;-2.136;2024-01-06T08:15:03;7.03;;;1.88;;
41861;SDS011;27537;57.134;-2.136;2024-01-06T08:17:31;4.40;;;1.70;;
41861;SDS011;27537;57.134;-2.136;2024-01-06T08:19:57;4.60;;;1.75;;
41861;SDS011;27537;57.134;-2.136;2024-01-06T08:22:24;4.90;;;2.03;;
41861;SDS011;27537;57.134;-2.136;2024-01-06T08:24:52;4.63;;;2.05;;
41861;SDS011;27537;57.134;-2.136;2024-01-06T08:27:19;4.40;;;1.80;;
41861;SDS011;27537;57.134;-2.136;2024-01-06T08:29:47;4.18;;;1.80;;
41861;SDS011;27537;57.134;-2.136;2024-01-06T08:32:14;5.35;;;1.98;;
41861;SDS011;27537;57.134;-2.136;2024-01-06T08:34:41;5.60;;;2.10;;
41861;SDS011;27537;57.134;-2.136;2024-01-06T08:37:08;4.30;;;1.77;;
41861;SDS011;27537;57.134;-2.136;2024-01-06T08:39:34;4.90;;;1.80;;
41861;SDS011;27537;57.134;-2.136;2024-01-06T08:42:01;5.57;;;2.30;;
41861;SDS011;27537;57.134;-2.136;2024-01-06T08:44:28;3.78;;;1.55;;
41861;SDS011;27537;57.134;-2.136;2024-01-06T08:46:55;5.22;;;2.05;;
41861;SDS011;27537;57.134;-2.136;2024-01-06T08:49:22;5.15;;;1.90;;
41861;SDS011;27537;57.134;-2.136;2024-01-06T08:51:49;5.32;;;2.03;;
41861;SDS011;27537;57.134;-2.136;2024-01-06T08:54:16;5.28;;;1.95;;
41861;SDS011;27537;57.134;-2.136;2024-01-06T08:56:43;4.80;;;1.75;;
41861;SDS011;27537;57.134;-2.136;2024-01-06T08:59:10;7.15;;;2.05;;
41861;SDS011;27537;57.134;-2.136;2024-01-06T09:01:36;4.45;;;1.90;;
41861;SDS011;27537;57.134;-2.136;2024-01-06T09:04:04;5.68;;;1.50;;
41861;SDS011;27537;57.134;-2.136;2024-01-06T09:06:33;7.22;;;2.92;;
41861;SDS011;27537;57.134;-2.136;2024-01-06T09:09:00;7.57;;;1.85;;
41861;SDS011;27537;57.134;-2.136;2024-01-06T09:11:26;2.70;;;1.40;;
41861;SDS011;27537;57.134;-2.136;2024-01-06T09:13:53;5.70;;;1.60;;
41861;SDS011;27537;57.134;-2.136;2024-01-06T09:16:20;3.42;;;1.40;;
41861;SDS011;27537;57.134;-2.136;2024-01-06T09:18:47;4.25;;;1.45;;
41861;SDS011;27537;57.134;-2.136;2024-01-06T09:21:14;6.72;;;1.63;;
41861;SDS011;27537;57.134;-2.136;2024-01-06T09:23:41;4.90;;;1.65;;
41861;SDS011;27537;57.134;-2.136;2024-01-06T09:26:08;3.13;;;1.30;;
41861;SDS011;27537;57.134;-2.136;2024-01-06T09:28:35;4.13;;;1.55;;
41861;SDS011;27537;57.134;-2.136;2024-01-06T09:31:01;2.95;;;1.30;;
41861;SDS011;27537;57.134;-2.136;2024-01-06T09:33:28;2.40;;;1.30;;
41861;SDS011;27537;57.134;-2.136;2024-01-06T09:35:55;4.07;;;1.40;;
41861;SDS011;27537;57.134;-2.136;2024-01-06T09:38:22;4.75;;;1.48;;
41861;SDS011;27537;57.134;-2.136;2024-01-06T09:40:48;7.15;;;1.50;;
41861;SDS011;27537;57.134;-2.136;2024-01-06T09:43:15;4.07;;;1.60;;
41861;SDS011;27537;57.134;-2.136;2024-01-06T09:45:42;3.55;;;1.40;;
41861;SDS011;27537;57.134;-2.136;2024-01-06T09:48:14;4.25;;;1.50;;
41861;SDS011;27537;57.134;-2.136;2024-01-06T09:50:44;4.35;;;1.50;;
41861;SDS011;27537;57.134;-2.136;2024-01-06T09:53:13;4.22;;;1.50;;
41861;SDS011;27537;57.134;-2.136;2024-01-06T09:55:40;7.15;;;1.50;;
41861;SDS011;27537;57.134;-2.136;2024-01-06T09:58:07;5.18;;;1.65;;
41861;SDS011;27537;57.134;-2.136;2024-01-06T10:00:36;4.28;;;1.50;;
41861;SDS011;27537;57.134;-2.136;2024-01-06T10:03:04;4.68;;;1.58;;
41861;SDS011;27537;57.134;-2.136;2024-01-06T10:05:30;7.00;;;2.10;;
41861;SDS011;27537;57.134;-2.136;2024-01-06T10:07:58;8.75;;;1.77;;
41861;SDS011;27537;57.134;-2.136;2024-01-06T10:10:26;3.72;;;1.27;;
41861;SDS011;27537;57.134;-2.136;2024-01-06T10:12:53;3.38;;;1.30;;
41861;SDS011;27537;57.134;-2.136;2024-01-06T10:15:21;5.75;;;1.55;;
41861;SDS011;27537;57.134;-2.136;2024-01-06T10:17:48;3.22;;;1.10;;
41861;SDS011;27537;57.134;-2.136;2024-01-06T10:20:16;4.70;;;1.42;;
41861;SDS011;27537;57.134;-2.136;2024-01-06T10:22:44;3.95;;;1.23;;
41861;SDS011;27537;57.134;-2.136;2024-01-06T10:25:11;5.63;;;1.10;;
41861;SDS011;27537;57.134;-2.136;2024-01-06T10:27:39;2.55;;;1.17;;
41861;SDS011;27537;57.134;-2.136;2024-01-06T10:30:07;4.43;;;1.40;;
41861;SDS011;27537;57.134;-2.136;2024-01-06T10:32:35;6.35;;;2.10;;
41861;SDS011;27537;57.134;-2.136;2024-01-06T10:35:03;10.30;;;2.35;;
41861;SDS011;27537;57.134;-2.136;2024-01-06T10:37:32;6.22;;;1.70;;
41861;SDS011;27537;57.134;-2.136;2024-01-06T10:40:12;4.25;;;1.40;;
41861;SDS011;27537;57.134;-2.136;2024-01-06T10:42:42;8.25;;;1.40;;
41861;SDS011;27537;57.134;-2.136;2024-01-06T10:45:11;4.97;;;1.40;;
41861;SDS011;27537;57.134;-2.136;2024-01-06T10:47:41;8.50;;;1.55;;
41861;SDS011;27537;57.134;-2.136;2024-01-06T10:50:12;3.78;;;1.33;;
41861;SDS011;27537;57.134;-2.136;2024-01-06T10:52:41;6.22;;;1.60;;
41861;SDS011;27537;57.134;-2.136;2024-01-06T10:55:09;6.32;;;1.50;;
41861;SDS011;27537;57.134;-2.136;2024-01-06T10:57:37;6.13;;;1.67;;
41861;SDS011;27537;57.134;-2.136;2024-01-06T11:00:04;8.23;;;2.10;;
41861;SDS011;27537;57.134;-2.136;2024-01-06T11:02:32;10.10;;;4.53;;
41861;SDS011;27537;57.134;-2.136;2024-01-06T11:05:00;7.15;;;1.90;;
41861;SDS011;27537;57.134;-2.136;2024-01-06T11:07:27;8.18;;;2.40;;
41861;SDS011;27537;57.134;-2.136;2024-01-06T11:10:37;9.25;;;1.63;;
41861;SDS011;27537;57.134;-2.136;2024-01-06T11:12:45;9.70;;;1.80;;
41861;SDS011;27537;57.134;-2.136;2024-01-06T11:15:38;15.68;;;2.22;;
41861;SDS011;27537;57.134;-2.136;2024-01-06T11:23:39;13.32;;;1.70;;
41861;SDS011;27537;57.134;-2.136;2024-01-06T11:26:07;6.90;;;1.50;;
41861;SDS011;27537;57.134;-2.136;2024-01-06T11:28:43;9.98;;;1.90;;
41861;SDS011;27537;57.134;-2.136;2024-01-06T11:31:13;7.00;;;1.55;;
41861;SDS011;27537;57.134;-2.136;2024-01-06T11:33:43;7.40;;;1.58;;
41861;SDS011;27537;57.134;-2.136;2024-01-06T11:36:14;4.30;;;1.45;;
41861;SDS011;27537;57.134;-2.136;2024-01-06T11:38:41;5.90;;;1.55;;
41861;SDS011;27537;57.134;-2.136;2024-01-06T11:41:19;6.35;;;1.70;;
41861;SDS011;27537;57.134;-2.136;2024-01-06T11:44:17;6.25;;;1.77;;
41861;SDS011;27537;57.134;-2.136;2024-01-06T11:46:45;9.65;;;2.53;;
41861;SDS011;27537;57.134;-2.136;2024-01-06T11:49:11;9.23;;;1.67;;
41861;SDS011;27537;57.134;-2.136;2024-01-06T11:51:41;7.82;;;2.10;;
41861;SDS011;27537;57.134;-2.136;2024-01-06T11:54:09;7.13;;;1.95;;
41861;SDS011;27537;57.134;-2.136;2024-01-06T11:56:36;6.68;;;1.60;;
41861;SDS011;27537;57.134;-2.136;2024-01-06T11:59:02;7.10;;;1.63;;
41861;SDS011;27537;57.134;-2.136;2024-01-06T12:01:38;7.40;;;1.83;;
41861;SDS011;27537;57.134;-2.136;2024-01-06T12:04:05;10.23;;;2.67;;
41861;SDS011;27537;57.134;-2.136;2024-01-06T12:06:33;6.55;;;1.60;;
41861;SDS011;27537;57.134;-2.136;2024-01-06T12:09:07;7.80;;;1.80;;
41861;SDS011;27537;57.134;-2.136;2024-01-06T12:11:36;7.57;;;1.88;;
41861;SDS011;27537;57.134;-2.136;2024-01-06T12:14:04;8.93;;;1.75;;
41861;SDS011;27537;57.134;-2.136;2024-01-06T12:16:31;5.90;;;1.60;;
41861;SDS011;27537;57.134;-2.136;2024-01-06T12:18:59;6.43;;;1.77;;
41861;SDS011;27537;57.134;-2.136;2024-01-06T12:21:27;7.93;;;1.90;;
41861;SDS011;27537;57.134;-2.136;2024-01-06T12:23:54;11.98;;;2.15;;
41861;SDS011;27537;57.134;-2.136;2024-01-06T12:26:40;6.18;;;2.03;;
41861;SDS011;27537;57.134;-2.136;2024-01-06T12:29:08;8.57;;;1.98;;
41861;SDS011;27537;57.134;-2.136;2024-01-06T12:31:35;7.60;;;2.00;;
41861;SDS011;27537;57.134;-2.136;2024-01-06T12:34:08;11.60;;;1.98;;
41861;SDS011;27537;57.134;-2.136;2024-01-06T12:36:37;4.97;;;1.60;;
41861;SDS011;27537;57.134;-2.136;2024-01-06T12:39:04;8.93;;;2.00;;
41861;SDS011;27537;57.134;-2.136;2024-01-06T12:41:31;12.10;;;2.10;;
41861;SDS011;27537;57.134;-2.136;2024-01-06T12:43:59;9.45;;;1.77;;
41861;SDS011;27537;57.134;-2.136;2024-01-06T12:46:26;9.60;;;1.88;;
41861;SDS011;27537;57.134;-2.136;2024-01-06T12:48:53;7.57;;;1.80;;
41861;SDS011;27537;57.134;-2.136;2024-01-06T12:51:20;10.95;;;2.13;;
41861;SDS011;27537;57.134;-2.136;2024-01-06T12:53:47;8.88;;;2.00;;
41861;SDS011;27537;57.134;-2.136;2024-01-06T12:56:14;8.07;;;2.30;;
41861;SDS011;27537;57.134;-2.136;2024-01-06T12:58:41;7.07;;;1.52;;
41861;SDS011;27537;57.134;-2.136;2024-01-06T13:01:08;9.13;;;2.13;;
41861;SDS011;27537;57.134;-2.136;2024-01-06T13:03:35;5.78;;;1.50;;
41861;SDS011;27537;57.134;-2.136;2024-01-06T13:06:02;8.52;;;1.95;;
41861;SDS011;27537;57.134;-2.136;2024-01-06T13:08:29;11.73;;;1.90;;
41861;SDS011;27537;57.134;-2.136;2024-01-06T13:10:56;9.07;;;2.53;;
41861;SDS011;27537;57.134;-2.136;2024-01-06T13:13:23;5.43;;;1.70;;
41861;SDS011;27537;57.134;-2.136;2024-01-06T13:15:49;6.22;;;1.77;;
41861;SDS011;27537;57.134;-2.136;2024-01-06T13:18:16;8.15;;;2.60;;
41861;SDS011;27537;57.134;-2.136;2024-01-06T13:20:43;11.18;;;2.45;;
41861;SDS011;27537;57.134;-2.136;2024-01-06T13:23:10;8.95;;;2.33;;
41861;SDS011;27537;57.134;-2.136;2024-01-06T13:25:38;7.32;;;2.75;;
41861;SDS011;27537;57.134;-2.136;2024-01-06T13:28:07;7.85;;;2.00;;
41861;SDS011;27537;57.134;-2.136;2024-01-06T13:30:34;8.60;;;2.53;;
41861;SDS011;27537;57.134;-2.136;2024-01-06T13:33:01;4.95;;;1.60;;
41861;SDS011;27537;57.134;-2.136;2024-01-06T13:35:27;10.70;;;3.90;;
41861;SDS011;27537;57.134;-2.136;2024-01-06T13:37:55;5.07;;;1.40;;
41861;SDS011;27537;57.134;-2.136;2024-01-06T13:40:22;6.80;;;1.95;;
41861;SDS011;27537;57.134;-2.136;2024-01-06T13:42:49;3.53;;;1.30;;
41861;SDS011;27537;57.134;-2.136;2024-01-06T13:45:19;7.55;;;1.60;;
41861;SDS011;27537;57.134;-2.136;2024-01-06T13:47:46;7.68;;;1.67;;
41861;SDS011;27537;57.134;-2.136;2024-01-06T13:50:14;6.63;;;1.55;;
41861;SDS011;27537;57.134;-2.136;2024-01-06T13:52:42;5.35;;;1.75;;
41861;SDS011;27537;57.134;-2.136;2024-01-06T13:55:09;5.93;;;2.40;;
41861;SDS011;27537;57.134;-2.136;2024-01-06T13:57:37;4.97;;;1.70;;
41861;SDS011;27537;57.134;-2.136;2024-01-06T14:00:08;5.95;;;1.70;;
41861;SDS011;27537;57.134;-2.136;2024-01-06T14:02:35;7.18;;;1.60;;
41861;SDS011;27537;57.134;-2.136;2024-01-06T14:05:02;7.13;;;1.67;;
41861;SDS011;27537;57.134;-2.136;2024-01-06T14:07:29;7.57;;;1.50;;
41861;SDS011;27537;57.134;-2.136;2024-01-06T14:09:56;3.47;;;1.40;;
41861;SDS011;27537;57.134;-2.136;2024-01-06T14:12:23;4.88;;;1.70;;
41861;SDS011;27537;57.134;-2.136;2024-01-06T14:14:49;4.45;;;1.20;;
41861;SDS011;27537;57.134;-2.136;2024-01-06T14:17:16;4.82;;;1.58;;
41861;SDS011;27537;57.134;-2.136;2024-01-06T14:19:42;4.55;;;1.60;;
41861;SDS011;27537;57.134;-2.136;2024-01-06T14:22:13;4.60;;;1.30;;
41861;SDS011;27537;57.134;-2.136;2024-01-06T14:24:41;4.28;;;1.70;;
41861;SDS011;27537;57.134;-2.136;2024-01-06T14:27:07;8.85;;;1.52;;
41861;SDS011;27537;57.134;-2.136;2024-01-06T14:29:34;5.97;;;1.60;;
41861;SDS011;27537;57.134;-2.136;2024-01-06T14:32:01;3.92;;;1.17;;
41861;SDS011;27537;57.134;-2.136;2024-01-06T14:34:28;6.68;;;1.67;;
41861;SDS011;27537;57.134;-2.136;2024-01-06T14:36:55;4.55;;;1.30;;
41861;SDS011;27537;57.134;-2.136;2024-01-06T14:39:21;4.88;;;1.60;;